Time;durP1;ratioP1;P1;durP2;ratioP2;P2;SDS_P1;SDS_P2;PMS_P1;PMS_P2;Temp;Humidity;BMP_temperature;BMP_pressure;BME280_temperature;BME280_humidity;BME280_pressure;Samples;Min_cycle;Max_cycle;Signal;HPM_P1;HPM_P2
2023/04/07 00:02:02;;;;;;;33.65;14.70;;;;;;;;;;4863661;29;20064;-93
2023/04/07 00:04:29;;;;;;;29.25;13.98;;;;;;;;;;4866181;29;20044;-92
2023/04/07 00:06:55;;;;;;;27.73;13.95;;;;;;;;;;4864604;29;20048;-92
2023/04/07 00:09:21;;;;;;;25.73;12.93;;;;;;;;;;4867282;29;20654;-94
2023/04/07 00:11:48;;;;;;;23.58;12.20;;;;;;;;;;4867409;29;20051;-94
2023/04/07 00:14:14;;;;;;;27.15;14.38;;;;;;;;;;4885659;29;20033;-94
2023/04/07 00:17:03;;;;;;;28.38;13.60;;;;;;;;;;4877212;29;20119;-91
2023/04/07 00:19:29;;;;;;;32.05;15.38;;;;;;;;;;4884672;29;20235;-93
2023/04/07 00:21:59;;;;;;;29.48;15.18;;;;;;;;;;4865815;29;20045;-93
2023/04/07 00:24:25;;;;;;;32.45;15.73;;;;;;;;;;4880094;29;20097;-93
2023/04/07 00:26:51;;;;;;;29.73;15.18;;;;;;;;;;4883606;29;20029;-93
2023/04/07 00:29:18;;;;;;;27.92;14.90;;;;;;;;;;4868330;29;20032;-94
2023/04/07 00:31:44;;;;;;;34.47;15.13;;;;;;;;;;4868047;29;20612;-93
2023/04/07 00:34:13;;;;;;;31.52;15.60;;;;;;;;;;4879980;29;20339;-94
2023/04/07 00:36:40;;;;;;;27.83;14.70;;;;;;;;;;4869795;29;20041;-93
2023/04/07 00:39:06;;;;;;;31.92;15.43;;;;;;;;;;4867705;29;20504;-93
2023/04/07 00:41:34;;;;;;;27.20;14.63;;;;;;;;;;4877300;29;20119;-94
2023/04/07 00:44:00;;;;;;;28.65;14.57;;;;;;;;;;4879944;29;20048;-93
2023/04/07 00:46:30;;;;;;;26.80;14.05;;;;;;;;;;4862677;29;20044;-94
2023/04/07 00:48:56;;;;;;;26.77;14.70;;;;;;;;;;4868907;29;20033;-94
2023/04/07 00:51:22;;;;;;;28.52;14.65;;;;;;;;;;4882414;29;20060;-95
2023/04/07 00:53:53;;;;;;;34.13;15.40;;;;;;;;;;4879181;29;20041;-95
2023/04/07 00:56:20;;;;;;;36.90;16.98;;;;;;;;;;4884414;29;20037;-94
2023/04/07 00:58:49;;;;;;;32.42;16.55;;;;;;;;;;4868105;29;20036;-94
2023/04/07 01:01:21;;;;;;;33.97;16.65;;;;;;;;;;4868376;29;20422;-93
2023/04/07 01:04:20;;;;;;;32.47;16.83;;;;;;;;;;4878245;29;20025;-93
2023/04/07 01:06:50;;;;;;;30.25;14.95;;;;;;;;;;4876378;29;20097;-93
2023/04/07 01:09:19;;;;;;;31.23;15.60;;;;;;;;;;4864647;29;20593;-92
2023/04/07 01:11:51;;;;;;;34.97;16.08;;;;;;;;;;4873950;29;20112;-93
2023/04/07 01:14:18;;;;;;;34.92;14.93;;;;;;;;;;4879358;29;20553;-93
2023/04/07 01:16:55;;;;;;;32.22;16.85;;;;;;;;;;4873866;29;20029;-94
2023/04/07 01:19:39;;;;;;;33.33;15.90;;;;;;;;;;4873786;29;20132;-93
2023/04/07 01:22:11;;;;;;;31.48;16.25;;;;;;;;;;4890146;29;20066;-92
2023/04/07 01:24:55;;;;;;;35.35;16.80;;;;;;;;;;4866952;29;20092;-94
2023/04/07 01:27:33;;;;;;;31.88;15.70;;;;;;;;;;4880119;29;20036;-94
2023/04/07 01:30:05;;;;;;;29.48;15.60;;;;;;;;;;4863666;29;20040;-93
2023/04/07 01:32:32;;;;;;;37.03;17.15;;;;;;;;;;4875470;29;20020;-94
2023/04/07 01:34:59;;;;;;;33.58;17.67;;;;;;;;;;4870870;29;20514;-95
2023/04/07 01:37:26;;;;;;;35.35;18.02;;;;;;;;;;4868578;29;20034;-94
2023/04/07 01:39:56;;;;;;;34.78;16.38;;;;;;;;;;4865608;29;20125;-94
2023/04/07 01:42:22;;;;;;;35.63;16.58;;;;;;;;;;4871825;29;20049;-94
2023/04/07 01:44:50;;;;;;;35.88;17.38;;;;;;;;;;4857869;29;20515;-92
2023/04/07 01:47:22;;;;;;;32.50;16.40;;;;;;;;;;4851100;29;20108;-94
2023/04/07 01:49:49;;;;;;;30.25;16.50;;;;;;;;;;4850690;29;20093;-93
2023/04/07 01:52:19;;;;;;;38.03;18.50;;;;;;;;;;4868965;29;20025;-93
2023/04/07 01:54:45;;;;;;;34.20;16.88;;;;;;;;;;4853299;29;20068;-94
2023/04/07 01:57:12;;;;;;;36.08;17.27;;;;;;;;;;4868224;29;20093;-93
2023/04/07 01:59:38;;;;;;;34.90;16.60;;;;;;;;;;4851767;29;20132;-93
2023/04/07 02:02:04;;;;;;;37.03;17.92;;;;;;;;;;4850684;29;20041;-92
2023/04/07 02:04:30;;;;;;;35.45;17.92;;;;;;;;;;4836350;29;20033;-92
2023/04/07 02:07:03;;;;;;;36.90;18.80;;;;;;;;;;4860291;29;20335;-93
2023/04/07 02:09:31;;;;;;;39.38;18.42;;;;;;;;;;4851438;29;20097;-93
2023/04/07 02:11:58;;;;;;;35.03;17.30;;;;;;;;;;4845125;29;20044;-92
2023/04/07 02:14:44;;;;;;;34.10;17.17;;;;;;;;;;4859596;29;20451;-93
2023/04/07 02:17:11;;;;;;;35.13;18.45;;;;;;;;;;4858846;29;20049;-93
2023/04/07 02:19:38;;;;;;;36.17;17.10;;;;;;;;;;4850955;29;20029;-94
2023/04/07 02:22:05;;;;;;;35.58;16.58;;;;;;;;;;4858936;29;20057;-94
2023/04/07 02:24:33;;;;;;;40.45;18.80;;;;;;;;;;4856151;29;20030;-94
2023/04/07 02:27:00;;;;;;;37.42;18.13;;;;;;;;;;4858273;29;20124;-94
2023/04/07 02:29:30;;;;;;;38.40;18.15;;;;;;;;;;4858090;29;20054;-94
2023/04/07 02:31:59;;;;;;;36.38;17.70;;;;;;;;;;4867315;29;20033;-95
2023/04/07 02:34:26;;;;;;;46.33;19.48;;;;;;;;;;4857393;29;20030;-94
2023/04/07 02:36:52;;;;;;;33.42;18.30;;;;;;;;;;4827466;29;20047;-92
2023/04/07 02:39:18;;;;;;;37.47;17.00;;;;;;;;;;4866695;29;20052;-93
2023/04/07 02:41:44;;;;;;;38.28;16.88;;;;;;;;;;4855140;29;20044;-93
2023/04/07 02:44:10;;;;;;;43.75;17.70;;;;;;;;;;4863240;29;20045;-94
2023/04/07 02:46:36;;;;;;;37.85;17.60;;;;;;;;;;4880109;29;20540;-93
2023/04/07 02:49:03;;;;;;;41.45;18.52;;;;;;;;;;4878816;29;20048;-93
2023/04/07 02:51:30;;;;;;;41.20;18.42;;;;;;;;;;4867917;29;20126;-92
2023/04/07 02:53:56;;;;;;;40.83;19.02;;;;;;;;;;4881769;29;20039;-92
2023/04/07 02:56:22;;;;;;;40.58;18.77;;;;;;;;;;4877272;29;20141;-92
2023/04/07 02:58:48;;;;;;;39.45;18.13;;;;;;;;;;4878579;29;20043;-93
2023/04/07 03:01:21;;;;;;;35.70;17.35;;;;;;;;;;4876760;29;20063;-93
2023/04/07 03:03:47;;;;;;;37.95;18.20;;;;;;;;;;4866550;29;20601;-93
2023/04/07 03:06:13;;;;;;;40.13;19.10;;;;;;;;;;4880237;29;20033;-92
2023/04/07 03:08:41;;;;;;;38.47;18.80;;;;;;;;;;4867260;29;20043;-93
2023/04/07 03:11:07;;;;;;;36.28;17.25;;;;;;;;;;4863244;29;20037;-94
2023/04/07 03:13:33;;;;;;;34.53;16.27;;;;;;;;;;4864103;29;20044;-94
2023/04/07 03:15:59;;;;;;;34.13;17.27;;;;;;;;;;4866748;29;20056;-93
2023/04/07 03:18:35;;;;;;;38.65;17.05;;;;;;;;;;4878532;29;20033;-92
2023/04/07 03:21:02;;;;;;;35.15;17.25;;;;;;;;;;4895425;29;20028;-93
2023/04/07 03:23:28;;;;;;;35.15;16.00;;;;;;;;;;4863048;29;20048;-93
2023/04/07 03:25:56;;;;;;;31.58;17.08;;;;;;;;;;4861204;29;20111;-92
2023/04/07 03:28:25;;;;;;;31.90;15.68;;;;;;;;;;4861571;29;20068;-93
2023/04/07 03:30:52;;;;;;;29.15;13.82;;;;;;;;;;4863435;29;20091;-93
2023/04/07 03:33:18;;;;;;;31.63;15.52;;;;;;;;;;4873532;29;20418;-93
2023/04/07 03:35:44;;;;;;;38.90;16.60;;;;;;;;;;4866341;29;20051;-93
2023/04/07 03:38:10;;;;;;;32.72;16.77;;;;;;;;;;4876143;29;20037;-94
2023/04/07 03:40:41;;;;;;;35.83;15.75;;;;;;;;;;4886978;29;20037;-94
2023/04/07 03:43:11;;;;;;;32.63;15.25;;;;;;;;;;4879301;29;20060;-93
2023/04/07 03:45:37;;;;;;;33.92;15.80;;;;;;;;;;4861484;29;20143;-93
2023/04/07 03:48:04;;;;;;;38.38;15.68;;;;;;;;;;4862194;29;20037;-93
2023/04/07 03:50:30;;;;;;;33.65;15.77;;;;;;;;;;4861989;29;20025;-94
2023/04/07 03:52:59;;;;;;;33.38;15.63;;;;;;;;;;4864214;29;20044;-93
2023/04/07 03:55:25;;;;;;;35.60;16.90;;;;;;;;;;4864527;29;20044;-92
2023/04/07 03:58:06;;;;;;;36.13;16.38;;;;;;;;;;4876349;29;20049;-92
2023/04/07 04:00:33;;;;;;;36.38;17.20;;;;;;;;;;4892293;29;20024;-93
2023/04/07 04:03:00;;;;;;;36.42;15.90;;;;;;;;;;4885368;29;20075;-94
2023/04/07 04:05:35;;;;;;;37.05;16.75;;;;;;;;;;4880106;29;20027;-93
2023/04/07 04:08:04;;;;;;;33.03;16.05;;;;;;;;;;4892073;29;20041;-94
2023/04/07 04:10:30;;;;;;;30.05;15.10;;;;;;;;;;4879614;29;20021;-93
2023/04/07 04:12:59;;;;;;;35.58;16.02;;;;;;;;;;4860376;29;20524;-94
2023/04/07 04:15:26;;;;;;;28.52;15.63;;;;;;;;;;4863712;29;20127;-93
2023/04/07 04:17:52;;;;;;;29.77;14.10;;;;;;;;;;4880796;29;20098;-92
2023/04/07 04:20:21;;;;;;;33.30;14.02;;;;;;;;;;4864074;29;20398;-92
2023/04/07 04:22:47;;;;;;;31.48;15.70;;;;;;;;;;4879780;29;20045;-92
2023/04/07 04:25:13;;;;;;;27.13;15.02;;;;;;;;;;4878376;29;20025;-92
2023/04/07 04:27:39;;;;;;;31.92;15.77;;;;;;;;;;4867854;29;20047;-92
2023/04/07 04:30:09;;;;;;;33.80;15.70;;;;;;;;;;4867235;29;20036;-92
2023/04/07 04:32:38;;;;;;;35.40;15.65;;;;;;;;;;4887036;29;22187;-94
2023/04/07 04:35:05;;;;;;;31.05;15.95;;;;;;;;;;4883207;29;20132;-93
2023/04/07 04:37:31;;;;;;;31.15;14.80;;;;;;;;;;4871681;29;20058;-93
2023/04/07 04:39:57;;;;;;;28.00;13.93;;;;;;;;;;4869893;29;20059;-92
2023/04/07 04:42:25;;;;;;;30.85;14.57;;;;;;;;;;4867929;29;20051;-92
2023/04/07 04:44:58;;;;;;;28.13;13.60;;;;;;;;;;4875320;29;20045;-95
2023/04/07 04:47:24;;;;;;;29.85;14.48;;;;;;;;;;4866181;29;20058;-93
2023/04/07 04:49:51;;;;;;;21.55;11.13;;;;;;;;;;4860622;29;20077;-93
2023/04/07 04:52:20;;;;;;;26.98;13.00;;;;;;;;;;4860633;29;20037;-93
2023/04/07 04:54:47;;;;;;;29.65;15.02;;;;;;;;;;4876207;29;20102;-92
2023/04/07 04:57:14;;;;;;;28.73;15.30;;;;;;;;;;4862138;29;20137;-93
2023/04/07 04:59:41;;;;;;;26.33;14.50;;;;;;;;;;4863679;29;20049;-92
2023/04/07 05:02:07;;;;;;;27.77;14.27;;;;;;;;;;4879871;29;20395;-92
2023/04/07 05:04:33;;;;;;;30.67;15.13;;;;;;;;;;4877806;29;20553;-92
2023/04/07 05:07:00;;;;;;;29.10;14.50;;;;;;;;;;4861283;29;20030;-92
2023/04/07 05:09:32;;;;;;;33.33;15.18;;;;;;;;;;4861466;29;20029;-93
2023/04/07 05:11:59;;;;;;;29.55;14.45;;;;;;;;;;4861773;29;20036;-91
2023/04/07 05:14:25;;;;;;;24.40;11.38;;;;;;;;;;4874193;29;20094;-90
2023/04/07 05:16:53;;;;;;;29.10;15.05;;;;;;;;;;4864667;29;20037;-91
2023/04/07 05:19:22;;;;;;;28.25;13.88;;;;;;;;;;4861571;29;20520;-91
2023/04/07 05:34:49;;;;;;;39.45;19.45;;;;;;;;;;5885121;22;8359425;-90
2023/04/07 05:37:15;;;;;;;34.47;16.85;;;;;;;;;;6204412;23;20022;-90
2023/04/07 05:39:41;;;;;;;30.42;15.18;;;;;;;;;;6198370;23;20019;-91
2023/04/07 05:42:08;;;;;;;31.98;17.05;;;;;;;;;;6202804;23;20578;-91
2023/04/07 05:44:34;;;;;;;30.20;15.48;;;;;;;;;;6228599;23;20117;-91
2023/04/07 05:47:00;;;;;;;32.63;16.10;;;;;;;;;;6205039;23;20058;-91
2023/04/07 05:49:27;;;;;;;29.98;15.25;;;;;;;;;;6230448;23;20016;-91
2023/04/07 05:51:53;;;;;;;26.45;14.13;;;;;;;;;;6204745;23;20019;-90
2023/04/07 05:54:21;;;;;;;31.48;16.05;;;;;;;;;;6229128;23;20480;-90
2023/04/07 05:56:47;;;;;;;34.38;15.95;;;;;;;;;;6203257;23;20062;-90
2023/04/07 05:59:13;;;;;;;30.92;15.05;;;;;;;;;;6204692;23;20012;-90
2023/04/07 06:01:39;;;;;;;26.92;14.30;;;;;;;;;;6204423;23;20010;-90
2023/04/07 06:04:30;;;;;;;31.75;13.95;;;;;;;;;;6228843;23;20012;-91
2023/04/07 06:06:56;;;;;;;30.88;14.00;;;;;;;;;;6207681;23;20019;-90
2023/04/07 06:09:24;;;;;;;32.70;16.02;;;;;;;;;;6228783;23;20154;-90
2023/04/07 06:11:51;;;;;;;29.60;15.35;;;;;;;;;;6226972;23;20014;-91
2023/04/07 06:14:17;;;;;;;29.65;15.25;;;;;;;;;;6228596;23;20004;-91
2023/04/07 06:16:45;;;;;;;29.38;16.00;;;;;;;;;;6228354;23;20004;-91
2023/04/07 06:19:11;;;;;;;32.47;16.30;;;;;;;;;;6204333;23;20095;-91
2023/04/07 06:21:38;;;;;;;33.22;15.57;;;;;;;;;;6229241;23;20086;-91
2023/04/07 06:24:05;;;;;;;30.73;14.65;;;;;;;;;;6203440;23;20008;-90
2023/04/07 06:26:31;;;;;;;31.85;15.82;;;;;;;;;;6227907;23;20027;-91
2023/04/07 06:29:06;;;;;;;32.35;16.38;;;;;;;;;;6228172;23;20000;-91
2023/04/07 06:31:34;;;;;;;32.55;15.40;;;;;;;;;;6229250;23;20007;-91
2023/04/07 06:34:15;;;;;;;32.17;16.05;;;;;;;;;;6232266;22;20299;-91
2023/04/07 06:36:41;;;;;;;30.27;15.63;;;;;;;;;;6197436;23;20429;-88
2023/04/07 06:39:11;;;;;;;29.52;14.90;;;;;;;;;;6220438;23;20091;-90
2023/04/07 06:41:37;;;;;;;36.92;15.65;;;;;;;;;;6197298;23;20023;-91
2023/04/07 06:44:06;;;;;;;32.65;16.40;;;;;;;;;;6196661;22;20013;-90
2023/04/07 06:46:34;;;;;;;26.15;14.77;;;;;;;;;;6197505;23;20335;-90
2023/04/07 06:49:00;;;;;;;27.98;14.15;;;;;;;;;;6222468;23;20435;-90
2023/04/07 06:51:26;;;;;;;30.90;15.60;;;;;;;;;;6221236;23;20418;-90
2023/04/07 06:53:53;;;;;;;29.60;15.07;;;;;;;;;;6197628;23;20345;-90
2023/04/07 06:56:19;;;;;;;28.98;14.60;;;;;;;;;;6200115;23;20062;-90
2023/04/07 06:58:47;;;;;;;28.33;14.90;;;;;;;;;;6206279;23;20008;-90
2023/04/07 07:01:13;;;;;;;31.70;15.65;;;;;;;;;;6205941;23;20012;-92
2023/04/07 07:03:39;;;;;;;30.83;15.52;;;;;;;;;;6230812;22;20039;-91
2023/04/07 07:06:06;;;;;;;31.55;14.40;;;;;;;;;;6211921;23;20012;-91
2023/04/07 07:08:32;;;;;;;30.88;14.70;;;;;;;;;;6214499;22;20016;-90
2023/04/07 07:11:02;;;;;;;29.77;15.55;;;;;;;;;;6239438;22;20048;-90
2023/04/07 07:13:31;;;;;;;31.25;15.10;;;;;;;;;;6242357;22;20016;-91
2023/04/07 07:16:01;;;;;;;31.05;14.35;;;;;;;;;;6240915;22;20034;-90
2023/04/07 07:18:38;;;;;;;;;;;;;;;;;;;;;
2023/04/07 07:40:28;;;;;;;24.60;12.90;;;;;;;;;;6196250;22;20043;-90
2023/04/07 07:42:54;;;;;;;22.83;12.07;;;;;;;;;;6199584;23;20024;-90
2023/04/07 07:45:20;;;;;;;20.50;11.57;;;;;;;;;;6191291;23;20012;-90
2023/04/07 07:47:56;;;;;;;22.65;11.73;;;;;;;;;;6170953;23;20253;-91
2023/04/07 07:50:29;;;;;;;22.45;12.35;;;;;;;;;;6198656;23;20009;-90
2023/04/07 07:53:09;;;;;;;21.20;11.68;;;;;;;;;;6194929;23;20001;-88
2023/04/07 07:55:38;;;;;;;20.15;11.88;;;;;;;;;;6199665;23;20037;-90
2023/04/07 07:58:04;;;;;;;22.90;12.70;;;;;;;;;;6174243;23;20009;-89
2023/04/07 08:00:31;;;;;;;22.35;11.65;;;;;;;;;;6193657;23;20030;-92
2023/04/07 08:02:57;;;;;;;26.98;12.55;;;;;;;;;;6166546;23;20095;-91
2023/04/07 08:05:24;;;;;;;21.38;11.63;;;;;;;;;;6192952;23;20709;-90
2023/04/07 08:08:00;;;;;;;22.67;11.45;;;;;;;;;;6187458;23;20024;-90
2023/04/07 08:10:26;;;;;;;;;;;;;;;;;;6188944;23;19997;-90
2023/04/07 08:12:52;;;;;;;25.33;13.10;;;;;;;;;;6187739;23;19911;-92
2023/04/07 08:15:24;;;;;;;19.80;12.13;;;;;;;;;;6189591;23;20013;-93
2023/04/07 08:17:50;;;;;;;24.38;12.70;;;;;;;;;;6163639;23;20013;-91
2023/04/07 08:20:16;;;;;;;22.77;13.02;;;;;;;;;;6161137;23;20036;-92
2023/04/07 08:22:42;;;;;;;29.85;16.02;;;;;;;;;;6186141;23;20095;-91
2023/04/07 08:25:12;;;;;;;28.92;15.25;;;;;;;;;;6162079;23;20020;-96
2023/04/07 08:27:38;;;;;;;32.65;17.15;;;;;;;;;;6191695;23;20039;-92
2023/04/07 08:30:08;;;;;;;33.78;18.60;;;;;;;;;;6198722;23;20085;-91
2023/04/07 08:32:49;;;;;;;38.13;18.70;;;;;;;;;;6192326;23;20120;-90
2023/04/07 08:35:22;;;;;;;35.35;19.33;;;;;;;;;;6192496;23;20013;-90
2023/04/07 08:37:49;;;;;;;35.75;18.50;;;;;;;;;;6193991;23;20016;-91
2023/04/07 08:40:15;;;;;;;35.92;19.38;;;;;;;;;;6189975;22;20079;-90
2023/04/07 08:42:44;;;;;;;36.42;19.55;;;;;;;;;;6167693;23;20032;-91
2023/04/07 08:45:11;;;;;;;30.75;17.25;;;;;;;;;;6190303;23;20000;-91
2023/04/07 08:53:57;;;;;;;33.88;17.10;;;;;;;;;;6102500;23;20592;-94
2023/04/07 08:56:24;;;;;;;29.10;16.80;;;;;;;;;;6102497;23;20021;-93
2023/04/07 08:59:02;;;;;;;28.45;15.20;;;;;;;;;;6101862;23;20173;-91
2023/04/07 09:01:29;;;;;;;31.65;17.02;;;;;;;;;;6096132;23;20014;-90
2023/04/07 09:04:01;;;;;;;29.77;17.35;;;;;;;;;;6133711;23;20131;-90
2023/04/07 09:06:30;;;;;;;32.47;16.23;;;;;;;;;;6162436;23;20009;-90
2023/04/07 09:08:57;;;;;;;29.33;16.17;;;;;;;;;;6187561;23;20020;-91
2023/04/07 09:11:23;;;;;;;31.85;17.23;;;;;;;;;;6163796;23;20036;-90
2023/04/07 09:13:50;;;;;;;27.88;15.32;;;;;;;;;;6189776;23;20001;-90
2023/04/07 09:16:29;;;;;;;28.38;14.73;;;;;;;;;;6189801;23;20084;-90
2023/04/07 09:18:56;;;;;;;24.85;14.20;;;;;;;;;;6189477;23;20519;-91
2023/04/07 09:21:22;;;;;;;32.97;13.80;;;;;;;;;;6197351;23;20048;-90
2023/04/07 09:24:14;;;;;;;23.58;13.43;;;;;;;;;;6204300;23;20005;-88
2023/04/07 09:27:09;;;;;;;30.02;13.82;;;;;;;;;;6198877;23;20003;-91
2023/04/07 09:29:36;;;;;;;24.90;12.52;;;;;;;;;;6178235;23;20310;-92
2023/04/07 09:34:49;;;;;;;;;;;;;;;;;;6160069;23;20009;-90
2023/04/07 09:37:23;;;;;;;17.08;10.13;;;;;;;;;;6193242;23;19907;-90
2023/04/07 09:39:50;;;;;;;21.10;11.80;;;;;;;;;;6193098;22;20017;-89
2023/04/07 09:43:14;;;;;;;25.67;12.60;;;;;;;;;;6196111;23;20032;-91
2023/04/07 09:45:35;;;;;;;24.58;12.05;;;;;;;;;;6176064;23;20009;-91
2023/04/07 09:48:39;;;;;;;22.52;12.00;;;;;;;;;;6192055;23;20551;-91
2023/04/07 09:51:26;;;;;;;19.77;10.70;;;;;;;;;;6191392;23;20009;-90
2023/04/07 09:53:53;;;;;;;20.10;10.85;;;;;;;;;;6192063;23;20059;-91
2023/04/07 09:56:22;;;;;;;21.83;11.85;;;;;;;;;;6191706;23;20009;-90
2023/04/07 09:58:57;;;;;;;15.02;9.77;;;;;;;;;;6199751;23;20009;-90
2023/04/07 10:01:37;;;;;;;14.30;9.20;;;;;;;;;;6206746;23;20012;-93
2023/04/07 10:04:16;;;;;;;;;;;;;;;;;;;;;
2023/04/07 10:06:46;;;;;;;22.30;9.27;;;;;;;;;;6204953;23;20040;-90
2023/04/07 10:14:37;;;;;;;18.67;9.95;;;;;;;;;;6196278;22;20021;-92
2023/04/07 10:17:05;;;;;;;20.60;9.25;;;;;;;;;;6166462;23;20008;-87
2023/04/07 10:19:35;;;;;;;17.38;10.85;;;;;;;;;;6166445;23;20020;-92
2023/04/07 10:22:20;;;;;;;18.88;9.50;;;;;;;;;;6168289;23;20005;-90
2023/04/07 10:24:52;;;;;;;15.25;9.40;;;;;;;;;;6166785;23;20011;-90
2023/04/07 10:27:20;;;;;;;17.17;10.50;;;;;;;;;;6163132;23;20001;-90
2023/04/07 10:29:48;;;;;;;18.88;10.30;;;;;;;;;;6167014;23;20004;-92
2023/04/07 10:32:17;;;;;;;16.80;10.65;;;;;;;;;;6163262;23;20013;-90
2023/04/07 10:34:49;;;;;;;17.45;10.52;;;;;;;;;;6166298;23;20013;-90
2023/04/07 10:37:21;;;;;;;15.60;9.90;;;;;;;;;;6166274;23;20067;-90
2023/04/07 10:39:49;;;;;;;17.63;9.88;;;;;;;;;;6165759;23;20009;-90
2023/04/07 10:42:47;;;;;;;18.80;10.43;;;;;;;;;;6165622;23;20013;-89
2023/04/07 10:45:32;;;;;;;16.05;10.05;;;;;;;;;;6164462;23;19997;-90
2023/04/07 10:47:58;;;;;;;16.55;10.18;;;;;;;;;;6167034;23;20121;-90
2023/04/07 10:50:25;;;;;;;15.43;8.95;;;;;;;;;;6137287;23;20010;-91
2023/04/07 10:53:11;;;;;;;15.57;8.98;;;;;;;;;;6136220;23;20452;-90
2023/04/07 10:55:56;;;;;;;14.40;8.75;;;;;;;;;;6161073;23;20076;-90
2023/04/07 10:58:22;;;;;;;16.50;8.00;;;;;;;;;;6135886;23;20010;-91
2023/04/07 11:01:08;;;;;;;18.77;9.88;;;;;;;;;;6140015;23;20045;-92
2023/04/07 11:03:42;;;;;;;20.55;9.63;;;;;;;;;;6164835;23;20015;-91
2023/04/07 11:06:15;;;;;;;19.23;9.20;;;;;;;;;;6141700;23;20044;-91
2023/04/07 11:08:46;;;;;;;14.05;8.50;;;;;;;;;;6139979;23;20352;-91
2023/04/07 11:11:17;;;;;;;11.88;7.85;;;;;;;;;;6141720;23;20044;-91
2023/04/07 11:13:47;;;;;;;13.57;8.77;;;;;;;;;;6134538;23;20082;-91
2023/04/07 11:16:16;;;;;;;19.50;9.52;;;;;;;;;;6134843;23;20033;-91
2023/04/07 11:18:42;;;;;;;13.18;8.60;;;;;;;;;;6132106;23;20014;-91
2023/04/07 11:21:12;;;;;;;13.35;8.05;;;;;;;;;;6106859;23;20073;-91
2023/04/07 11:23:47;;;;;;;10.80;6.68;;;;;;;;;;6132943;23;20018;-91
2023/04/07 11:26:15;;;;;;;11.52;7.13;;;;;;;;;;6129818;23;20006;-91
2023/04/07 11:28:59;;;;;;;12.27;7.07;;;;;;;;;;6146951;23;20118;-89
2023/04/07 11:31:39;;;;;;;11.07;6.38;;;;;;;;;;6151329;23;20002;-91
2023/04/07 11:34:06;;;;;;;16.48;7.45;;;;;;;;;;6151371;23;20029;-91
2023/04/07 11:36:51;;;;;;;10.80;6.45;;;;;;;;;;6142098;23;20030;-91
2023/04/07 11:39:26;;;;;;;11.93;7.88;;;;;;;;;;6130603;23;20037;-90
2023/04/07 11:41:57;;;;;;;11.45;7.25;;;;;;;;;;6129512;23;20006;-91
2023/04/07 11:44:25;;;;;;;12.45;7.70;;;;;;;;;;6104985;23;20014;-91
2023/04/07 11:47:02;;;;;;;13.32;7.30;;;;;;;;;;6130342;23;20006;-90
2023/04/07 11:49:49;;;;;;;13.07;6.85;;;;;;;;;;6133105;23;20100;-90
2023/04/07 11:52:19;;;;;;;11.18;7.05;;;;;;;;;;6134110;23;20029;-90
2023/04/07 11:54:58;;;;;;;9.95;6.13;;;;;;;;;;6138288;23;20478;-89
2023/04/07 11:57:31;;;;;;;13.70;7.63;;;;;;;;;;6097759;23;20020;-91
2023/04/07 12:00:32;;;;;;;11.65;6.82;;;;;;;;;;6126214;23;20498;-91
2023/04/07 12:03:09;;;;;;;11.63;6.70;;;;;;;;;;6069528;23;20448;-92
2023/04/07 12:05:44;;;;;;;14.30;7.30;;;;;;;;;;6131161;23;20020;-91
2023/04/07 12:08:13;;;;;;;12.43;7.82;;;;;;;;;;6132940;23;20013;-90
2023/04/07 12:10:40;;;;;;;13.50;7.95;;;;;;;;;;6129469;23;20002;-91
2023/04/07 12:13:15;;;;;;;11.52;7.28;;;;;;;;;;6108223;22;20017;-90
2023/04/07 12:15:43;;;;;;;12.60;7.82;;;;;;;;;;6109312;23;20018;-91
2023/04/07 12:18:15;;;;;;;11.18;6.88;;;;;;;;;;6081720;23;20013;-90
2023/04/07 12:20:50;;;;;;;11.15;7.10;;;;;;;;;;6105013;23;20018;-89
2023/04/07 12:23:30;;;;;;;12.38;8.45;;;;;;;;;;6085730;23;20045;-90
2023/04/07 12:26:10;;;;;;;13.20;8.18;;;;;;;;;;6106064;23;20089;-90
2023/04/07 12:28:41;;;;;;;12.05;6.90;;;;;;;;;;6105503;23;20017;-90
2023/04/07 12:31:14;;;;;;;11.80;7.70;;;;;;;;;;6106216;23;20033;-91
2023/04/07 12:33:51;;;;;;;10.77;6.97;;;;;;;;;;6129119;23;20034;-90
2023/04/07 12:36:20;;;;;;;12.67;8.63;;;;;;;;;;6105607;23;20033;-92
2023/04/07 12:38:48;;;;;;;11.27;7.22;;;;;;;;;;6105132;23;20403;-91
2023/04/07 12:41:23;;;;;;;13.95;7.78;;;;;;;;;;6104163;23;20482;-90
2023/04/07 12:43:52;;;;;;;11.63;7.70;;;;;;;;;;6079167;23;20014;-92
2023/04/07 12:46:23;;;;;;;15.68;8.13;;;;;;;;;;6104722;23;20010;-91
2023/04/07 12:48:50;;;;;;;14.02;7.93;;;;;;;;;;6104758;23;20017;-91
2023/04/07 12:51:26;;;;;;;13.40;7.97;;;;;;;;;;6082880;23;20064;-89
2023/04/07 12:53:55;;;;;;;10.93;7.35;;;;;;;;;;6081856;23;20017;-91
2023/04/07 12:56:21;;;;;;;11.63;7.47;;;;;;;;;;6102505;23;20013;-91
2023/04/07 12:58:48;;;;;;;11.38;7.20;;;;;;;;;;6129137;23;20017;-91
2023/04/07 13:01:15;;;;;;;13.02;7.70;;;;;;;;;;6103440;23;20463;-90
2023/04/07 13:06:26;;;;;;;15.00;8.02;;;;;;;;;;6109047;23;20064;-92
2023/04/07 13:08:52;;;;;;;12.52;7.38;;;;;;;;;;6078854;23;20463;-92
2023/04/07 13:11:48;;;;;;;10.80;7.78;;;;;;;;;;6079372;23;20544;-92
2023/04/07 13:14:32;;;;;;;10.55;7.65;;;;;;;;;;6118001;23;20018;-92
2023/04/07 13:17:19;;;;;;;;;;;;;;;;;;;;;
2023/04/07 13:23:32;;;;;;;;;;;;;;;;;;;;;
2023/04/07 13:29:10;;;;;;;11.02;6.63;;;;;;;;;;6085294;23;20016;-91
2023/04/07 13:31:56;;;;;;;15.52;7.65;;;;;;;;;;6127401;23;20440;-92
2023/04/07 13:34:23;;;;;;;13.18;8.15;;;;;;;;;;6127764;23;20006;-91
2023/04/07 13:44:03;;;;;;;;;;;;;;;;;;;;;
2023/04/07 13:47:21;;;;;;;;;;;;;;;;;;;;;
2023/04/07 14:02:56;;;;;;;11.68;7.38;;;;;;;;;;5810462;24;20026;-89
2023/04/07 14:12:20;;;;;;;;;;;;;;;;;;;;;
2023/04/07 14:14:59;;;;;;;11.68;7.63;;;;;;;;;;6028470;23;20055;-91
2023/04/07 14:27:48;;;;;;;;;;;;;;;;;;;;;
2023/04/07 14:33:55;;;;;;;9.95;7.63;;;;;;;;;;5744466;25;20047;-91
2023/04/07 14:39:40;;;;;;;12.32;8.35;;;;;;;;;;5756745;24;20119;-92
2023/04/07 14:42:09;;;;;;;11.40;7.85;;;;;;;;;;5779350;24;20006;-91
2023/04/07 14:44:50;;;;;;;12.27;7.75;;;;;;;;;;5900818;24;20387;-91
2023/04/07 14:47:24;;;;;;;12.20;7.03;;;;;;;;;;5927555;23;20020;-92
2023/04/07 14:50:00;;;;;;;10.70;7.60;;;;;;;;;;5988652;23;20011;-91
2023/04/07 14:52:58;;;;;;;;;;;;;;;;;;;;;
2023/04/07 14:59:35;;;;;;;10.80;8.18;;;;;;;;;;5985407;24;20076;-91
2023/04/07 15:02:34;;;;;;;11.20;8.27;;;;;;;;;;5976543;24;20016;-91
2023/04/07 15:05:32;;;;;;;;;;;;;;;;;;;;;
2023/04/07 15:14:36;;;;;;;;;;;;;;;;;;;;;
2023/04/07 15:17:13;;;;;;;11.93;9.60;;;;;;;;;;5998124;23;20042;-93
2023/04/07 15:19:45;;;;;;;10.95;8.23;;;;;;;;;;6123178;23;20018;-87
2023/04/07 15:22:14;;;;;;;13.75;8.20;;;;;;;;;;6127865;23;20012;-88
2023/04/07 15:24:41;;;;;;;13.90;9.57;;;;;;;;;;6124507;23;20120;-89
2023/04/07 15:27:07;;;;;;;15.75;9.63;;;;;;;;;;6125707;23;20002;-87
2023/04/07 15:29:36;;;;;;;12.68;8.68;;;;;;;;;;6123780;23;20006;-87
2023/04/07 15:32:02;;;;;;;11.45;8.65;;;;;;;;;;6098961;23;20006;-85
2023/04/07 15:34:53;;;;;;;14.88;10.40;;;;;;;;;;6101799;23;20282;-88
2023/04/07 15:37:40;;;;;;;;;;;;;;;;;;;;;
2023/04/07 15:40:28;;;;;;;;;;;;;;;;;;;;;
2023/04/07 15:43:34;;;;;;;;;;;;;;;;;;;;;
2023/04/07 15:46:27;;;;;;;16.20;10.98;;;;;;;;;;6130697;23;20030;-94
2023/04/07 15:49:12;;;;;;;17.05;11.55;;;;;;;;;;6108006;23;20006;-93
2023/04/07 15:51:44;;;;;;;19.23;11.85;;;;;;;;;;6126231;23;20006;-88
2023/04/07 15:54:10;;;;;;;19.85;12.45;;;;;;;;;;6097630;23;20014;-87
2023/04/07 15:57:14;;;;;;;15.18;10.80;;;;;;;;;;6125512;23;20006;-94
2023/04/07 16:00:10;;;;;;;;;;;;;;;;;;;;;
2023/04/07 16:15:01;;;;;;;15.13;10.18;;;;;;;;;;5983884;23;20440;-93
2023/04/07 16:18:22;;;;;;;;;;;;;;;;;;;;;
2023/04/07 16:21:08;;;;;;;;;;;;;;;;;;;;;
2023/04/07 16:23:52;;;;;;;20.15;10.35;;;;;;;;;;5977239;24;20056;-92
2023/04/07 16:39:23;;;;;;;;;;;;;;;;;;6186352;22;20423;-95
2023/04/07 16:41:50;;;;;;;17.02;9.90;;;;;;;;;;6162834;23;20331;-95
2023/04/07 16:44:20;;;;;;;18.25;10.10;;;;;;;;;;6163436;23;20036;-94
2023/04/07 16:46:46;;;;;;;14.38;8.90;;;;;;;;;;6161196;23;20436;-96
2023/04/07 16:49:13;;;;;;;16.92;9.70;;;;;;;;;;6163533;23;20071;-94
2023/04/07 16:51:39;;;;;;;17.23;10.68;;;;;;;;;;6162668;23;20463;-95
2023/04/07 16:54:05;;;;;;;17.35;9.80;;;;;;;;;;6171094;23;20019;-96
2023/04/07 16:56:39;;;;;;;20.58;11.20;;;;;;;;;;6205314;23;20296;-96
2023/04/07 16:59:06;;;;;;;20.75;9.38;;;;;;;;;;6178730;23;20430;-96
2023/04/07 17:01:33;;;;;;;15.35;9.93;;;;;;;;;;6202934;23;20009;-96
2023/04/07 17:04:06;;;;;;;17.55;9.73;;;;;;;;;;6176299;23;20191;-96
2023/04/07 17:06:32;;;;;;;12.75;8.65;;;;;;;;;;6176766;23;20005;-96
2023/04/07 17:08:58;;;;;;;23.48;9.80;;;;;;;;;;6175915;23;20005;-94
2023/04/07 17:11:25;;;;;;;14.27;8.73;;;;;;;;;;6164953;23;20005;-96
2023/04/07 17:13:53;;;;;;;17.52;9.52;;;;;;;;;;6163630;23;20104;-96
2023/04/07 17:16:20;;;;;;;17.65;8.80;;;;;;;;;;6188526;23;20017;-96
2023/04/07 17:18:46;;;;;;;16.50;8.15;;;;;;;;;;6163538;23;20547;-96
2023/04/07 17:21:14;;;;;;;13.68;9.02;;;;;;;;;;6163632;23;20009;-96